sensor_id;sensor_type;location;lat;lon;timestamp;P1;durP1;ratioP1;P2;durP2;ratioP2
48207;SDS011;33997;53.278;9.708;2023-04-02T00:02:34;4.05;;;1.38;;
48207;SDS011;33997;53.278;9.708;2023-04-02T00:07:54;6.03;;;1.52;;
48207;SDS011;33997;53.278;9.708;2023-04-02T00:10:51;4.28;;;1.45;;
48207;SDS011;33997;53.278;9.708;2023-04-02T00:16:08;8.32;;;1.50;;
48207;SDS011;33997;53.278;9.708;2023-04-02T00:18:39;7.93;;;2.00;;
48207;SDS011;33997;53.278;9.708;2023-04-02T00:21:18;7.65;;;1.80;;
48207;SDS011;33997;53.278;9.708;2023-04-02T00:23:44;6.10;;;1.67;;
48207;SDS011;33997;53.278;9.708;2023-04-02T00:26:24;7.18;;;1.50;;
48207;SDS011;33997;53.278;9.708;2023-04-02T00:28:55;4.03;;;1.42;;
48207;SDS011;33997;53.278;9.708;2023-04-02T00:31:22;9.05;;;2.05;;
48207;SDS011;33997;53.278;9.708;2023-04-02T00:33:48;6.38;;;1.65;;
48207;SDS011;33997;53.278;9.708;2023-04-02T00:36:14;5.93;;;1.75;;
48207;SDS011;33997;53.278;9.708;2023-04-02T00:38:43;6.38;;;1.63;;
48207;SDS011;33997;53.278;9.708;2023-04-02T00:41:12;11.27;;;1.63;;
48207;SDS011;33997;53.278;9.708;2023-04-02T00:43:41;3.72;;;1.13;;
48207;SDS011;33997;53.278;9.708;2023-04-02T00:46:11;8.67;;;1.40;;
48207;SDS011;33997;53.278;9.708;2023-04-02T00:48:42;8.20;;;1.75;;
48207;SDS011;33997;53.278;9.708;2023-04-02T00:51:27;7.28;;;1.77;;
48207;SDS011;33997;53.278;9.708;2023-04-02T00:54:01;5.10;;;1.58;;
48207;SDS011;33997;53.278;9.708;2023-04-02T00:56:39;9.32;;;1.60;;
48207;SDS011;33997;53.278;9.708;2023-04-02T00:59:28;8.05;;;1.45;;
48207;SDS011;33997;53.278;9.708;2023-04-02T01:02:00;5.90;;;1.52;;
48207;SDS011;33997;53.278;9.708;2023-04-02T01:04:50;5.93;;;1.50;;
48207;SDS011;33997;53.278;9.708;2023-04-02T01:07:22;5.50;;;1.75;;
48207;SDS011;33997;53.278;9.708;2023-04-02T01:15:34;6.47;;;1.60;;
48207;SDS011;33997;53.278;9.708;2023-04-02T01:23:59;4.78;;;1.55;;
48207;SDS011;33997;53.278;9.708;2023-04-02T01:26:28;5.32;;;1.30;;
48207;SDS011;33997;53.278;9.708;2023-04-02T01:29:21;3.05;;;1.42;;
48207;SDS011;33997;53.278;9.708;2023-04-02T01:31:56;7.13;;;1.50;;
48207;SDS011;33997;53.278;9.708;2023-04-02T01:34:27;5.28;;;1.70;;
48207;SDS011;33997;53.278;9.708;2023-04-02T01:42:31;6.45;;;1.52;;
48207;SDS011;33997;53.278;9.708;2023-04-02T01:45:18;8.50;;;1.88;;
48207;SDS011;33997;53.278;9.708;2023-04-02T01:47:46;5.05;;;1.58;;
48207;SDS011;33997;53.278;9.708;2023-04-02T01:52:44;10.20;;;1.75;;
48207;SDS011;33997;53.278;9.708;2023-04-02T01:55:12;4.20;;;1.40;;
48207;SDS011;33997;53.278;9.708;2023-04-02T01:57:41;4.80;;;1.20;;
48207;SDS011;33997;53.278;9.708;2023-04-02T02:00:11;4.45;;;1.33;;
48207;SDS011;33997;53.278;9.708;2023-04-02T02:02:39;9.25;;;1.73;;
48207;SDS011;33997;53.278;9.708;2023-04-02T02:05:11;6.72;;;1.92;;
48207;SDS011;33997;53.278;9.708;2023-04-02T02:07:38;6.97;;;1.70;;
48207;SDS011;33997;53.278;9.708;2023-04-02T02:10:05;9.82;;;1.70;;
48207;SDS011;33997;53.278;9.708;2023-04-02T02:12:32;8.60;;;1.45;;
48207;SDS011;33997;53.278;9.708;2023-04-02T02:14:57;5.88;;;1.63;;
48207;SDS011;33997;53.278;9.708;2023-04-02T02:17:26;4.60;;;1.40;;
48207;SDS011;33997;53.278;9.708;2023-04-02T02:19:58;6.20;;;1.52;;
48207;SDS011;33997;53.278;9.708;2023-04-02T02:22:26;5.25;;;1.73;;
48207;SDS011;33997;53.278;9.708;2023-04-02T02:24:58;7.15;;;1.40;;
48207;SDS011;33997;53.278;9.708;2023-04-02T02:29:54;5.47;;;1.40;;
48207;SDS011;33997;53.278;9.708;2023-04-02T02:32:24;4.93;;;1.20;;
48207;SDS011;33997;53.278;9.708;2023-04-02T02:34:54;8.25;;;1.58;;
48207;SDS011;33997;53.278;9.708;2023-04-02T02:37:35;2.08;;;1.05;;
48207;SDS011;33997;53.278;9.708;2023-04-02T02:40:05;7.45;;;1.60;;
48207;SDS011;33997;53.278;9.708;2023-04-02T02:42:40;7.18;;;1.35;;
48207;SDS011;33997;53.278;9.708;2023-04-02T02:45:12;5.63;;;1.20;;
48207;SDS011;33997;53.278;9.708;2023-04-02T02:50:15;5.43;;;1.10;;
48207;SDS011;33997;53.278;9.708;2023-04-02T02:52:56;5.85;;;1.45;;
48207;SDS011;33997;53.278;9.708;2023-04-02T02:55:24;8.32;;;1.50;;
48207;SDS011;33997;53.278;9.708;2023-04-02T02:57:57;5.40;;;1.60;;
48207;SDS011;33997;53.278;9.708;2023-04-02T03:00:28;7.00;;;1.38;;
48207;SDS011;33997;53.278;9.708;2023-04-02T03:02:54;2.03;;;0.95;;
48207;SDS011;33997;53.278;9.708;2023-04-02T03:05:21;9.70;;;1.33;;
48207;SDS011;33997;53.278;9.708;2023-04-02T03:07:50;4.25;;;1.42;;
48207;SDS011;33997;53.278;9.708;2023-04-02T03:10:28;7.00;;;1.90;;
48207;SDS011;33997;53.278;9.708;2023-04-02T03:13:15;4.88;;;1.58;;
48207;SDS011;33997;53.278;9.708;2023-04-02T03:18:19;6.60;;;1.52;;
48207;SDS011;33997;53.278;9.708;2023-04-02T03:21:36;5.97;;;1.58;;
48207;SDS011;33997;53.278;9.708;2023-04-02T03:27:12;2.65;;;1.30;;
48207;SDS011;33997;53.278;9.708;2023-04-02T03:32:37;3.90;;;1.58;;
48207;SDS011;33997;53.278;9.708;2023-04-02T03:35:16;7.10;;;1.42;;
48207;SDS011;33997;53.278;9.708;2023-04-02T03:38:03;6.47;;;1.42;;
48207;SDS011;33997;53.278;9.708;2023-04-02T03:40:43;5.07;;;1.13;;
48207;SDS011;33997;53.278;9.708;2023-04-02T03:43:47;8.35;;;1.75;;
48207;SDS011;33997;53.278;9.708;2023-04-02T03:46:30;5.10;;;1.50;;
48207;SDS011;33997;53.278;9.708;2023-04-02T03:49:02;10.15;;;1.52;;
48207;SDS011;33997;53.278;9.708;2023-04-02T03:51:36;6.35;;;1.20;;
48207;SDS011;33997;53.278;9.708;2023-04-02T03:54:14;7.30;;;1.27;;
48207;SDS011;33997;53.278;9.708;2023-04-02T03:56:41;5.78;;;1.48;;
48207;SDS011;33997;53.278;9.708;2023-04-02T04:01:48;5.45;;;1.60;;
48207;SDS011;33997;53.278;9.708;2023-04-02T04:04:19;4.78;;;1.27;;
48207;SDS011;33997;53.278;9.708;2023-04-02T04:06:48;4.65;;;1.33;;
48207;SDS011;33997;53.278;9.708;2023-04-02T04:09:28;5.25;;;1.13;;
48207;SDS011;33997;53.278;9.708;2023-04-02T04:14:35;4.53;;;1.25;;
48207;SDS011;33997;53.278;9.708;2023-04-02T04:24:56;4.55;;;1.02;;
48207;SDS011;33997;53.278;9.708;2023-04-02T04:27:42;4.85;;;1.15;;
48207;SDS011;33997;53.278;9.708;2023-04-02T04:30:23;6.45;;;1.55;;
48207;SDS011;33997;53.278;9.708;2023-04-02T04:33:00;4.90;;;1.20;;
48207;SDS011;33997;53.278;9.708;2023-04-02T04:37:59;4.60;;;1.10;;
48207;SDS011;33997;53.278;9.708;2023-04-02T04:40:35;7.82;;;1.50;;
48207;SDS011;33997;53.278;9.708;2023-04-02T04:43:06;7.78;;;1.27;;
48207;SDS011;33997;53.278;9.708;2023-04-02T04:48:18;6.53;;;1.40;;
48207;SDS011;33997;53.278;9.708;2023-04-02T04:53:22;5.88;;;1.25;;
48207;SDS011;33997;53.278;9.708;2023-04-02T04:55:54;3.78;;;1.20;;
48207;SDS011;33997;53.278;9.708;2023-04-02T05:01:14;5.13;;;0.85;;
48207;SDS011;33997;53.278;9.708;2023-04-02T05:03:50;3.40;;;1.17;;
48207;SDS011;33997;53.278;9.708;2023-04-02T05:12:30;4.40;;;1.40;;
48207;SDS011;33997;53.278;9.708;2023-04-02T05:17:20;4.75;;;1.38;;
48207;SDS011;33997;53.278;9.708;2023-04-02T05:19:52;3.83;;;0.98;;
48207;SDS011;33997;53.278;9.708;2023-04-02T05:22:28;2.95;;;1.08;;
48207;SDS011;33997;53.278;9.708;2023-04-02T05:25:11;7.85;;;1.13;;
48207;SDS011;33997;53.278;9.708;2023-04-02T05:32:58;4.13;;;1.20;;
48207;SDS011;33997;53.278;9.708;2023-04-02T05:35:33;3.22;;;0.90;;
48207;SDS011;33997;53.278;9.708;2023-04-02T05:38:00;2.83;;;1.02;;
48207;SDS011;33997;53.278;9.708;2023-04-02T05:40:28;5.72;;;1.48;;
48207;SDS011;33997;53.278;9.708;2023-04-02T05:43:06;4.40;;;1.38;;
48207;SDS011;33997;53.278;9.708;2023-04-02T05:45:35;4.25;;;0.85;;
48207;SDS011;33997;53.278;9.708;2023-04-02T05:48:06;5.40;;;0.85;;
48207;SDS011;33997;53.278;9.708;2023-04-02T05:50:40;4.07;;;1.00;;
48207;SDS011;33997;53.278;9.708;2023-04-02T05:53:12;3.90;;;1.20;;
48207;SDS011;33997;53.278;9.708;2023-04-02T05:55:51;4.05;;;0.95;;
48207;SDS011;33997;53.278;9.708;2023-04-02T05:58:40;2.42;;;0.80;;
48207;SDS011;33997;53.278;9.708;2023-04-02T06:01:16;4.53;;;1.20;;
48207;SDS011;33997;53.278;9.708;2023-04-02T06:04:09;2.38;;;0.98;;
48207;SDS011;33997;53.278;9.708;2023-04-02T06:15:14;3.13;;;1.08;;
48207;SDS011;33997;53.278;9.708;2023-04-02T06:17:44;5.05;;;1.30;;
48207;SDS011;33997;53.278;9.708;2023-04-02T06:20:31;4.20;;;0.90;;
48207;SDS011;33997;53.278;9.708;2023-04-02T06:23:05;5.47;;;1.23;;
48207;SDS011;33997;53.278;9.708;2023-04-02T06:28:54;3.08;;;1.05;;
48207;SDS011;33997;53.278;9.708;2023-04-02T06:31:44;5.57;;;1.25;;
48207;SDS011;33997;53.278;9.708;2023-04-02T06:34:14;3.60;;;0.90;;
48207;SDS011;33997;53.278;9.708;2023-04-02T06:36:42;7.05;;;0.95;;
48207;SDS011;33997;53.278;9.708;2023-04-02T06:39:10;6.88;;;1.13;;
48207;SDS011;33997;53.278;9.708;2023-04-02T06:41:44;3.53;;;0.70;;
48207;SDS011;33997;53.278;9.708;2023-04-02T06:44:14;2.35;;;0.85;;
48207;SDS011;33997;53.278;9.708;2023-04-02T06:46:44;3.95;;;1.10;;
48207;SDS011;33997;53.278;9.708;2023-04-02T06:49:22;2.60;;;0.95;;
48207;SDS011;33997;53.278;9.708;2023-04-02T06:51:56;7.22;;;0.88;;
48207;SDS011;33997;53.278;9.708;2023-04-02T06:54:24;5.55;;;1.02;;
48207;SDS011;33997;53.278;9.708;2023-04-02T06:56:50;4.35;;;1.00;;
48207;SDS011;33997;53.278;9.708;2023-04-02T06:59:17;5.70;;;0.90;;
48207;SDS011;33997;53.278;9.708;2023-04-02T07:01:45;5.32;;;1.27;;
48207;SDS011;33997;53.278;9.708;2023-04-02T07:04:22;4.63;;;1.05;;
48207;SDS011;33997;53.278;9.708;2023-04-02T07:06:48;2.60;;;0.85;;
48207;SDS011;33997;53.278;9.708;2023-04-02T07:09:15;4.13;;;1.00;;
48207;SDS011;33997;53.278;9.708;2023-04-02T07:11:40;5.03;;;1.05;;
48207;SDS011;33997;53.278;9.708;2023-04-02T07:14:08;3.70;;;1.00;;
48207;SDS011;33997;53.278;9.708;2023-04-02T07:16:37;3.05;;;0.90;;
48207;SDS011;33997;53.278;9.708;2023-04-02T07:19:03;4.45;;;1.00;;
48207;SDS011;33997;53.278;9.708;2023-04-02T07:21:29;2.97;;;0.75;;
48207;SDS011;33997;53.278;9.708;2023-04-02T07:23:55;4.00;;;1.00;;
48207;SDS011;33997;53.278;9.708;2023-04-02T07:26:22;4.82;;;1.23;;
48207;SDS011;33997;53.278;9.708;2023-04-02T07:28:52;4.47;;;1.10;;
48207;SDS011;33997;53.278;9.708;2023-04-02T07:31:20;2.65;;;0.77;;
48207;SDS011;33997;53.278;9.708;2023-04-02T07:33:48;5.13;;;0.90;;
48207;SDS011;33997;53.278;9.708;2023-04-02T07:36:16;4.68;;;0.95;;
48207;SDS011;33997;53.278;9.708;2023-04-02T07:41:11;3.58;;;0.82;;
48207;SDS011;33997;53.278;9.708;2023-04-02T07:43:37;1.38;;;0.70;;
48207;SDS011;33997;53.278;9.708;2023-04-02T07:46:03;4.15;;;1.02;;
48207;SDS011;33997;53.278;9.708;2023-04-02T07:48:30;3.00;;;1.00;;
48207;SDS011;33997;53.278;9.708;2023-04-02T07:50:55;3.95;;;1.25;;
48207;SDS011;33997;53.278;9.708;2023-04-02T07:53:39;3.95;;;0.68;;
48207;SDS011;33997;53.278;9.708;2023-04-02T07:56:05;3.72;;;1.00;;
48207;SDS011;33997;53.278;9.708;2023-04-02T07:58:32;2.50;;;0.73;;
48207;SDS011;33997;53.278;9.708;2023-04-02T08:00:58;2.67;;;0.85;;
48207;SDS011;33997;53.278;9.708;2023-04-02T08:03:25;4.18;;;0.90;;
48207;SDS011;33997;53.278;9.708;2023-04-02T08:05:52;3.20;;;1.02;;
48207;SDS011;33997;53.278;9.708;2023-04-02T08:08:19;2.95;;;0.90;;
48207;SDS011;33997;53.278;9.708;2023-04-02T08:10:45;4.90;;;1.00;;
48207;SDS011;33997;53.278;9.708;2023-04-02T08:13:11;3.65;;;1.10;;
48207;SDS011;33997;53.278;9.708;2023-04-02T08:15:37;3.50;;;1.00;;
48207;SDS011;33997;53.278;9.708;2023-04-02T08:18:02;2.88;;;0.95;;
48207;SDS011;33997;53.278;9.708;2023-04-02T08:20:28;4.22;;;0.88;;
48207;SDS011;33997;53.278;9.708;2023-04-02T08:22:53;4.05;;;0.77;;
48207;SDS011;33997;53.278;9.708;2023-04-02T08:25:20;2.17;;;0.60;;
48207;SDS011;33997;53.278;9.708;2023-04-02T08:27:46;2.85;;;0.60;;
48207;SDS011;33997;53.278;9.708;2023-04-02T08:30:12;5.25;;;0.95;;
48207;SDS011;33997;53.278;9.708;2023-04-02T08:32:39;3.58;;;0.90;;
48207;SDS011;33997;53.278;9.708;2023-04-02T08:35:08;2.70;;;0.60;;
48207;SDS011;33997;53.278;9.708;2023-04-02T08:37:35;1.58;;;0.43;;
48207;SDS011;33997;53.278;9.708;2023-04-02T08:40:01;2.17;;;0.80;;
48207;SDS011;33997;53.278;9.708;2023-04-02T08:42:36;1.85;;;0.57;;
48207;SDS011;33997;53.278;9.708;2023-04-02T08:48:03;3.00;;;0.70;;
48207;SDS011;33997;53.278;9.708;2023-04-02T08:50:31;5.22;;;0.88;;
48207;SDS011;33997;53.278;9.708;2023-04-02T08:53:22;2.83;;;0.60;;
48207;SDS011;33997;53.278;9.708;2023-04-02T08:58:46;3.03;;;0.68;;
48207;SDS011;33997;53.278;9.708;2023-04-02T09:01:20;1.48;;;0.57;;
48207;SDS011;33997;53.278;9.708;2023-04-02T09:03:59;2.97;;;0.70;;
48207;SDS011;33997;53.278;9.708;2023-04-02T09:06:27;5.63;;;1.40;;
48207;SDS011;33997;53.278;9.708;2023-04-02T09:08:53;2.30;;;0.70;;
48207;SDS011;33997;53.278;9.708;2023-04-02T09:11:22;4.18;;;0.98;;
48207;SDS011;33997;53.278;9.708;2023-04-02T09:13:53;2.90;;;0.90;;
48207;SDS011;33997;53.278;9.708;2023-04-02T09:16:46;4.07;;;0.70;;
48207;SDS011;33997;53.278;9.708;2023-04-02T09:22:01;1.52;;;0.65;;
48207;SDS011;33997;53.278;9.708;2023-04-02T09:24:31;0.95;;;0.50;;
48207;SDS011;33997;53.278;9.708;2023-04-02T09:26:57;4.20;;;0.75;;
48207;SDS011;33997;53.278;9.708;2023-04-02T09:29:34;3.80;;;0.65;;
48207;SDS011;33997;53.278;9.708;2023-04-02T09:35:05;4.05;;;0.80;;
48207;SDS011;33997;53.278;9.708;2023-04-02T09:37:30;2.20;;;0.85;;
48207;SDS011;33997;53.278;9.708;2023-04-02T09:42:41;1.52;;;0.60;;
48207;SDS011;33997;53.278;9.708;2023-04-02T09:47:41;2.20;;;0.60;;
48207;SDS011;33997;53.278;9.708;2023-04-02T09:52:52;2.40;;;0.52;;
48207;SDS011;33997;53.278;9.708;2023-04-02T09:55:27;1.35;;;0.90;;
48207;SDS011;33997;53.278;9.708;2023-04-02T09:58:06;3.40;;;1.02;;
48207;SDS011;33997;53.278;9.708;2023-04-02T10:00:36;1.50;;;0.68;;
48207;SDS011;33997;53.278;9.708;2023-04-02T10:05:45;3.97;;;0.88;;
48207;SDS011;33997;53.278;9.708;2023-04-02T10:10:43;2.03;;;0.70;;
48207;SDS011;33997;53.278;9.708;2023-04-02T10:13:17;1.38;;;0.70;;
48207;SDS011;33997;53.278;9.708;2023-04-02T10:15:57;2.25;;;0.77;;
48207;SDS011;33997;53.278;9.708;2023-04-02T10:21:05;6.03;;;0.80;;
48207;SDS011;33997;53.278;9.708;2023-04-02T10:23:31;4.95;;;0.68;;
48207;SDS011;33997;53.278;9.708;2023-04-02T10:26:19;3.90;;;0.50;;
48207;SDS011;33997;53.278;9.708;2023-04-02T10:45:55;3.97;;;0.85;;
48207;SDS011;33997;53.278;9.708;2023-04-02T10:49:21;3.60;;;0.80;;
48207;SDS011;33997;53.278;9.708;2023-04-02T10:52:09;1.88;;;0.63;;
48207;SDS011;33997;53.278;9.708;2023-04-02T10:54:45;9.25;;;1.05;;
48207;SDS011;33997;53.278;9.708;2023-04-02T10:57:33;2.97;;;0.60;;
48207;SDS011;33997;53.278;9.708;2023-04-02T11:00:07;2.70;;;0.70;;
48207;SDS011;33997;53.278;9.708;2023-04-02T11:02:49;3.30;;;0.88;;
48207;SDS011;33997;53.278;9.708;2023-04-02T11:07:52;1.65;;;0.60;;
48207;SDS011;33997;53.278;9.708;2023-04-02T11:10:33;1.23;;;0.50;;
48207;SDS011;33997;53.278;9.708;2023-04-02T11:15:46;3.65;;;0.60;;
48207;SDS011;33997;53.278;9.708;2023-04-02T11:18:20;3.97;;;1.20;;
48207;SDS011;33997;53.278;9.708;2023-04-02T11:20:56;2.08;;;0.70;;
48207;SDS011;33997;53.278;9.708;2023-04-02T11:23:27;4.82;;;0.95;;
48207;SDS011;33997;53.278;9.708;2023-04-02T11:29:10;3.53;;;0.65;;
48207;SDS011;33997;53.278;9.708;2023-04-02T11:31:37;3.22;;;0.63;;
48207;SDS011;33997;53.278;9.708;2023-04-02T11:34:03;2.22;;;0.60;;
48207;SDS011;33997;53.278;9.708;2023-04-02T11:42:20;3.53;;;0.68;;
48207;SDS011;33997;53.278;9.708;2023-04-02T11:44:49;2.28;;;0.68;;
48207;SDS011;33997;53.278;9.708;2023-04-02T11:47:16;2.78;;;0.70;;
48207;SDS011;33997;53.278;9.708;2023-04-02T11:52:30;2.83;;;0.90;;
48207;SDS011;33997;53.278;9.708;2023-04-02T11:55:02;2.70;;;0.73;;
48207;SDS011;33997;53.278;9.708;2023-04-02T12:05:44;3.00;;;0.90;;
48207;SDS011;33997;53.278;9.708;2023-04-02T12:08:31;2.05;;;0.85;;
48207;SDS011;33997;53.278;9.708;2023-04-02T12:11:00;3.17;;;0.68;;
48207;SDS011;33997;53.278;9.708;2023-04-02T12:16:05;3.05;;;0.65;;
48207;SDS011;33997;53.278;9.708;2023-04-02T12:18:32;1.83;;;0.70;;
48207;SDS011;33997;53.278;9.708;2023-04-02T12:20:59;2.00;;;0.85;;
48207;SDS011;33997;53.278;9.708;2023-04-02T12:23:26;2.25;;;0.68;;
48207;SDS011;33997;53.278;9.708;2023-04-02T12:26:05;1.73;;;0.63;;
48207;SDS011;33997;53.278;9.708;2023-04-02T12:28:46;3.17;;;1.00;;
48207;SDS011;33997;53.278;9.708;2023-04-02T12:31:13;2.80;;;0.85;;
48207;SDS011;33997;53.278;9.708;2023-04-02T12:33:42;1.70;;;0.52;;
48207;SDS011;33997;53.278;9.708;2023-04-02T12:38:56;3.85;;;0.95;;
48207;SDS011;33997;53.278;9.708;2023-04-02T12:41:23;3.63;;;0.70;;
48207;SDS011;33997;53.278;9.708;2023-04-02T12:46:22;1.85;;;0.68;;
48207;SDS011;33997;53.278;9.708;2023-04-02T12:48:50;1.67;;;0.80;;
48207;SDS011;33997;53.278;9.708;2023-04-02T12:51:17;1.98;;;0.60;;
48207;SDS011;33997;53.278;9.708;2023-04-02T12:53:46;3.40;;;0.90;;
48207;SDS011;33997;53.278;9.708;2023-04-02T12:56:18;2.85;;;0.75;;
48207;SDS011;33997;53.278;9.708;2023-04-02T12:58:52;1.63;;;0.60;;
48207;SDS011;33997;53.278;9.708;2023-04-02T13:01:25;4.32;;;0.77;;
48207;SDS011;33997;53.278;9.708;2023-04-02T13:03:59;4.78;;;0.90;;
48207;SDS011;33997;53.278;9.708;2023-04-02T13:06:33;4.32;;;1.02;;
48207;SDS011;33997;53.278;9.708;2023-04-02T13:09:00;2.33;;;0.73;;
48207;SDS011;33997;53.278;9.708;2023-04-02T13:11:32;2.10;;;0.68;;
48207;SDS011;33997;53.278;9.708;2023-04-02T13:14:00;2.83;;;0.70;;
48207;SDS011;33997;53.278;9.708;2023-04-02T13:16:37;1.95;;;0.65;;
48207;SDS011;33997;53.278;9.708;2023-04-02T13:19:18;2.03;;;0.88;;
48207;SDS011;33997;53.278;9.708;2023-04-02T13:21:45;3.05;;;1.13;;
48207;SDS011;33997;53.278;9.708;2023-04-02T13:24:18;2.17;;;0.50;;
48207;SDS011;33997;53.278;9.708;2023-04-02T13:26:44;1.48;;;0.52;;
48207;SDS011;33997;53.278;9.708;2023-04-02T13:29:22;2.25;;;0.85;;
48207;SDS011;33997;53.278;9.708;2023-04-02T13:31:51;2.95;;;0.70;;
48207;SDS011;33997;53.278;9.708;2023-04-02T13:34:18;1.80;;;0.50;;
48207;SDS011;33997;53.278;9.708;2023-04-02T13:36:44;3.33;;;0.85;;
48207;SDS011;33997;53.278;9.708;2023-04-02T13:39:10;1.90;;;0.68;;
48207;SDS011;33997;53.278;9.708;2023-04-02T13:41:39;1.85;;;0.60;;
48207;SDS011;33997;53.278;9.708;2023-04-02T13:44:13;2.05;;;0.70;;
48207;SDS011;33997;53.278;9.708;2023-04-02T13:46:48;2.13;;;0.60;;
48207;SDS011;33997;53.278;9.708;2023-04-02T13:49:14;2.88;;;0.82;;
48207;SDS011;33997;53.278;9.708;2023-04-02T13:51:44;1.55;;;0.55;;
48207;SDS011;33997;53.278;9.708;2023-04-02T13:54:15;2.20;;;0.68;;
48207;SDS011;33997;53.278;9.708;2023-04-02T13:56:45;2.45;;;0.65;;
48207;SDS011;33997;53.278;9.708;2023-04-02T13:59:11;3.55;;;0.90;;
48207;SDS011;33997;53.278;9.708;2023-04-02T14:01:37;2.70;;;0.93;;
48207;SDS011;33997;53.278;9.708;2023-04-02T14:04:03;2.90;;;0.60;;
48207;SDS011;33997;53.278;9.708;2023-04-02T14:06:37;3.38;;;0.80;;
48207;SDS011;33997;53.278;9.708;2023-04-02T14:11:59;3.42;;;0.90;;
48207;SDS011;33997;53.278;9.708;2023-04-02T14:31:02;2.75;;;0.60;;
48207;SDS011;33997;53.278;9.708;2023-04-02T14:33:55;1.70;;;0.73;;
48207;SDS011;33997;53.278;9.708;2023-04-02T14:44:42;1.30;;;0.55;;
48207;SDS011;33997;53.278;9.708;2023-04-02T14:47:30;3.05;;;1.00;;
48207;SDS011;33997;53.278;9.708;2023-04-02T14:50:05;3.67;;;1.10;;
48207;SDS011;33997;53.278;9.708;2023-04-02T14:52:40;4.05;;;0.90;;
48207;SDS011;33997;53.278;9.708;2023-04-02T14:55:11;2.92;;;0.95;;
48207;SDS011;33997;53.278;9.708;2023-04-02T14:57:47;2.30;;;0.70;;
48207;SDS011;33997;53.278;9.708;2023-04-02T15:10:57;3.60;;;0.65;;
48207;SDS011;33997;53.278;9.708;2023-04-02T15:13:32;3.35;;;0.70;;
48207;SDS011;33997;53.278;9.708;2023-04-02T15:16:07;1.35;;;0.75;;
48207;SDS011;33997;53.278;9.708;2023-04-02T15:21:20;5.15;;;0.90;;
48207;SDS011;33997;53.278;9.708;2023-04-02T15:24:20;3.95;;;1.02;;
48207;SDS011;33997;53.278;9.708;2023-04-02T15:27:16;4.32;;;1.00;;
48207;SDS011;33997;53.278;9.708;2023-04-02T15:30:11;3.55;;;0.90;;
48207;SDS011;33997;53.278;9.708;2023-04-02T15:32:42;5.50;;;1.20;;
48207;SDS011;33997;53.278;9.708;2023-04-02T15:40:43;3.58;;;0.95;;
48207;SDS011;33997;53.278;9.708;2023-04-02T15:46:30;5.80;;;1.02;;
48207;SDS011;33997;53.278;9.708;2023-04-02T15:54:55;4.75;;;1.08;;
48207;SDS011;33997;53.278;9.708;2023-04-02T15:57:27;3.40;;;0.90;;
48207;SDS011;33997;53.278;9.708;2023-04-02T16:09:13;4.13;;;1.00;;
48207;SDS011;33997;53.278;9.708;2023-04-02T16:11:50;3.63;;;1.20;;
48207;SDS011;33997;53.278;9.708;2023-04-02T16:14:26;4.78;;;1.23;;
48207;SDS011;33997;53.278;9.708;2023-04-02T16:16:54;4.88;;;1.13;;
48207;SDS011;33997;53.278;9.708;2023-04-02T16:19:47;3.38;;;1.10;;
48207;SDS011;33997;53.278;9.708;2023-04-02T16:22:25;3.00;;;0.70;;
48207;SDS011;33997;53.278;9.708;2023-04-02T16:25:00;2.80;;;0.98;;
48207;SDS011;33997;53.278;9.708;2023-04-02T16:27:46;5.00;;;1.08;;
48207;SDS011;33997;53.278;9.708;2023-04-02T16:30:23;3.90;;;1.10;;
48207;SDS011;33997;53.278;9.708;2023-04-02T16:33:21;3.95;;;1.10;;
48207;SDS011;33997;53.278;9.708;2023-04-02T16:46:32;4.45;;;1.48;;
48207;SDS011;33997;53.278;9.708;2023-04-02T16:49:11;5.00;;;1.20;;
48207;SDS011;33997;53.278;9.708;2023-04-02T16:55:09;4.07;;;1.02;;
48207;SDS011;33997;53.278;9.708;2023-04-02T17:00:53;4.65;;;1.33;;
48207;SDS011;33997;53.278;9.708;2023-04-02T17:03:33;5.85;;;1.65;;
48207;SDS011;33997;53.278;9.708;2023-04-02T17:06:21;5.82;;;1.90;;
48207;SDS011;33997;53.278;9.708;2023-04-02T17:09:16;5.20;;;1.88;;
48207;SDS011;33997;53.278;9.708;2023-04-02T17:11:47;6.93;;;1.73;;
48207;SDS011;33997;53.278;9.708;2023-04-02T17:14:30;5.47;;;1.60;;
48207;SDS011;33997;53.278;9.708;2023-04-02T17:17:03;7.50;;;1.50;;
48207;SDS011;33997;53.278;9.708;2023-04-02T17:19:30;4.20;;;2.15;;
48207;SDS011;33997;53.278;9.708;2023-04-02T17:21:58;4.22;;;1.45;;
48207;SDS011;33997;53.278;9.708;2023-04-02T17:26:58;5.32;;;2.05;;
48207;SDS011;33997;53.278;9.708;2023-04-02T17:29:31;6.32;;;1.50;;
48207;SDS011;33997;53.278;9.708;2023-04-02T17:32:02;6.28;;;1.42;;
48207;SDS011;33997;53.278;9.708;2023-04-02T17:34:29;7.05;;;1.70;;
48207;SDS011;33997;53.278;9.708;2023-04-02T17:36:58;6.60;;;2.05;;
48207;SDS011;33997;53.278;9.708;2023-04-02T17:42:32;4.30;;;1.50;;
48207;SDS011;33997;53.278;9.708;2023-04-02T17:45:03;4.85;;;1.48;;
48207;SDS011;33997;53.278;9.708;2023-04-02T17:47:41;4.70;;;1.42;;
48207;SDS011;33997;53.278;9.708;2023-04-02T17:50:26;6.25;;;1.50;;
48207;SDS011;33997;53.278;9.708;2023-04-02T17:53:12;5.00;;;1.30;;
48207;SDS011;33997;53.278;9.708;2023-04-02T18:05:11;7.32;;;1.40;;
48207;SDS011;33997;53.278;9.708;2023-04-02T18:07:47;5.80;;;1.88;;
48207;SDS011;33997;53.278;9.708;2023-04-02T18:13:14;4.75;;;1.67;;
48207;SDS011;33997;53.278;9.708;2023-04-02T18:16:25;3.42;;;1.67;;
48207;SDS011;33997;53.278;9.708;2023-04-02T18:21:47;6.05;;;1.58;;
48207;SDS011;33997;53.278;9.708;2023-04-02T18:30:09;6.15;;;2.20;;
48207;SDS011;33997;53.278;9.708;2023-04-02T18:35:42;4.90;;;1.38;;
48207;SDS011;33997;53.278;9.708;2023-04-02T18:38:43;4.15;;;1.30;;
48207;SDS011;33997;53.278;9.708;2023-04-02T18:41:20;2.58;;;1.05;;
48207;SDS011;33997;53.278;9.708;2023-04-02T18:46:50;3.38;;;1.10;;
48207;SDS011;33997;53.278;9.708;2023-04-02T18:51:43;5.22;;;1.20;;
48207;SDS011;33997;53.278;9.708;2023-04-02T18:54:17;4.70;;;1.05;;
48207;SDS011;33997;53.278;9.708;2023-04-02T18:56:49;3.63;;;1.00;;
48207;SDS011;33997;53.278;9.708;2023-04-02T19:01:48;4.60;;;1.13;;
48207;SDS011;33997;53.278;9.708;2023-04-02T19:04:27;5.38;;;1.20;;
48207;SDS011;33997;53.278;9.708;2023-04-02T19:07:00;6.75;;;1.20;;
48207;SDS011;33997;53.278;9.708;2023-04-02T19:09:38;5.38;;;1.42;;
48207;SDS011;33997;53.278;9.708;2023-04-02T19:12:15;3.97;;;1.13;;
48207;SDS011;33997;53.278;9.708;2023-04-02T19:14:43;4.85;;;1.40;;
48207;SDS011;33997;53.278;9.708;2023-04-02T19:25:15;3.05;;;1.25;;
48207;SDS011;33997;53.278;9.708;2023-04-02T19:31:00;4.57;;;1.00;;
48207;SDS011;33997;53.278;9.708;2023-04-02T19:33:32;5.57;;;1.38;;
48207;SDS011;33997;53.278;9.708;2023-04-02T19:36:16;5.75;;;1.23;;
48207;SDS011;33997;53.278;9.708;2023-04-02T19:41:46;2.90;;;1.40;;
48207;SDS011;33997;53.278;9.708;2023-04-02T19:44:16;6.50;;;1.42;;
48207;SDS011;33997;53.278;9.708;2023-04-02T19:46:42;3.72;;;1.17;;
48207;SDS011;33997;53.278;9.708;2023-04-02T19:51:53;1.50;;;0.98;;
48207;SDS011;33997;53.278;9.708;2023-04-02T19:54:19;4.32;;;1.33;;
48207;SDS011;33997;53.278;9.708;2023-04-02T19:56:45;4.88;;;0.90;;
48207;SDS011;33997;53.278;9.708;2023-04-02T19:59:11;3.40;;;0.98;;
48207;SDS011;33997;53.278;9.708;2023-04-02T20:01:36;5.07;;;1.13;;
48207;SDS011;33997;53.278;9.708;2023-04-02T20:04:02;2.50;;;1.17;;
48207;SDS011;33997;53.278;9.708;2023-04-02T20:06:29;4.38;;;1.20;;
48207;SDS011;33997;53.278;9.708;2023-04-02T20:08:55;2.13;;;0.85;;
48207;SDS011;33997;53.278;9.708;2023-04-02T20:11:22;2.38;;;1.00;;
48207;SDS011;33997;53.278;9.708;2023-04-02T20:13:48;3.13;;;1.10;;
48207;SDS011;33997;53.278;9.708;2023-04-02T20:16:14;3.85;;;1.05;;
48207;SDS011;33997;53.278;9.708;2023-04-02T20:18:40;5.05;;;1.20;;
48207;SDS011;33997;53.278;9.708;2023-04-02T20:21:06;4.25;;;1.48;;
48207;SDS011;33997;53.278;9.708;2023-04-02T20:23:32;3.03;;;1.10;;
48207;SDS011;33997;53.278;9.708;2023-04-02T20:25:58;3.20;;;1.15;;
48207;SDS011;33997;53.278;9.708;2023-04-02T20:28:25;3.97;;;1.40;;